CZFM/ZFM METAR and TAF weather

Enter ICAO airport designator
Station Type Date Time Source
CZFM METAR 2021/04/17 23:00 UTC NOAA

CZFM 172300Z 29006KT 240V310 35SM FEW090 09/M06 A3060 RMK AC1 AC TR SNWCVR/MUCH LOOSE LAST STFD OBS/NXT181400Z SLP365


Station Type Date Time Source
CZFM Decoded METAR 2021/04/17 23:00 UTC NOAA

Fort Mcpherson Airport, Canada (CZFM) 67-24N 134-51W
Apr 17, 2021 - 07:00 PM EDT / 2021.04.17 2300 UTC
Wind: from the WNW (290 degrees) at 7 MPH (6 KT) (direction variable):0
Visibility: 35 mile(s):0
Sky conditions: mostly clear
Temperature: 48 F (9 C)
Dew Point: 21 F (-6 C)
Relative Humidity: 34%
Pressure (altimeter): 30.6 in. Hg (1036 hPa)
ob: CZFM 172300Z 29006KT 240V310 35SM FEW090 09/M06 A3060 RMK AC1 AC TR SNWCVR/MUCH LOOSE LAST STFD OBS/NXT181400Z SLP365
cycle: 23

Station Type Date Time Source
CZFM TAF 2021/04/17 19:00 UTC NOAA

TAF CZFM 171838Z 1719/1723 25005KT P6SM SCT170
RMK NXT FCST WILL BE ISSUED AT 181545Z

Example: see airport list